Gibson, Louisiana
Current Conditions -  °F | °C
As of 5:15 PM on Wednesday 26 Nov 2014 (Local Time) from KPTN Reporting Station
Clear Clear  
Wind Chill: 61°   Ceiling: Unl
Heat Index: 61°   Visibility: 10mi
Dew Point: 46°   Wind: 9mph
Humidity: 59%   Direction: 250°WSW
Pressure: 30.24"   Gusts: NA
Location:  29.69°N, 90.99°W
Report Text: KPTN 262315Z AUTO 25008KT 10SM CLR 16/08 A3024 RMK AO1
Loading
Personal Weather Stations






























Interactive Weather Map New forecast layout! Learn more

10-Day Weather Forecast

Advertisements
Track Severe Weather on mobile